Time;durP1;ratioP1;P1;durP2;ratioP2;P2;SDS_P1;SDS_P2;PMS_P1;PMS_P2;Temp;Humidity;BMP_temperature;BMP_pressure;BME280_temperature;BME280_humidity;BME280_pressure;Samples;Min_cycle;Max_cycle;Signal;HPM_P1;HPM_P2
2022/04/08 00:01:15;;;;;;;5.93;0.60;;;5.20;99.90;;;;;;5091933;28;20055;-69
2022/04/08 00:03:41;;;;;;;4.28;1.08;;;5.20;99.90;;;;;;5075923;28;20048;-69
2022/04/08 00:06:08;;;;;;;6.60;1.23;;;5.20;99.90;;;;;;5101891;28;20048;-69
2022/04/08 00:08:34;;;;;;;6.78;0.90;;;5.10;99.90;;;;;;5094749;28;20052;-69
2022/04/08 00:11:00;;;;;;;5.15;1.05;;;5.10;99.90;;;;;;5095416;28;20056;-69
2022/04/08 00:13:26;;;;;;;5.65;0.82;;;5.10;99.90;;;;;;5095483;28;20044;-69
2022/04/08 00:15:54;;;;;;;7.50;1.10;;;5.00;99.90;;;;;;5113417;28;20172;-69
2022/04/08 00:18:20;;;;;;;12.55;1.17;;;4.80;99.90;;;;;;5077246;28;20044;-69
2022/04/08 00:20:46;;;;;;;1.65;0.40;;;4.70;99.90;;;;;;5093701;28;20090;-69
2022/04/08 00:23:12;;;;;;;3.20;0.63;;;4.60;99.90;;;;;;5074279;28;20082;-69
2022/04/08 00:25:38;;;;;;;5.30;0.63;;;4.50;99.90;;;;;;5093581;28;20441;-69
2022/04/08 00:28:04;;;;;;;3.40;0.68;;;4.40;99.90;;;;;;5075048;28;20047;-69
2022/04/08 00:30:30;;;;;;;3.55;0.65;;;4.30;99.90;;;;;;5074656;28;20044;-69
2022/04/08 00:32:58;;;;;;;7.50;1.83;;;4.30;99.90;;;;;;5073801;28;20044;-69
2022/04/08 00:35:27;;;;;;;5.57;0.65;;;4.30;99.90;;;;;;5093341;28;20482;-69
2022/04/08 00:37:52;;;;;;;7.13;0.90;;;4.30;99.90;;;;;;5092892;28;20048;-69
2022/04/08 00:40:18;;;;;;;2.50;0.75;;;4.30;99.90;;;;;;5092738;28;20047;-69
2022/04/08 00:42:44;;;;;;;8.07;0.80;;;4.20;99.90;;;;;;5093269;28;20032;-69
2022/04/08 00:45:13;;;;;;;7.20;1.63;;;4.20;99.90;;;;;;5092278;28;20533;-69
2022/04/08 00:47:41;;;;;;;7.65;1.42;;;5.20;99.90;;;;;;5093199;28;20043;-69
2022/04/08 00:50:08;;;;;;;10.55;2.25;;;4.20;99.90;;;;;;5092617;28;20123;-69
2022/04/08 00:52:35;;;;;;;10.10;2.08;;;4.10;99.90;;;;;;5074132;28;20052;-69
2022/04/08 00:55:04;;;;;;;9.52;0.93;;;4.00;99.90;;;;;;5092278;28;20498;-69
2022/04/08 00:57:32;;;;;;;12.68;1.50;;;3.90;99.90;;;;;;5073605;28;20159;-69
2022/04/08 01:00:00;;;;;;;7.20;1.77;;;3.90;99.90;;;;;;5074609;28;20048;-69
2022/04/08 01:02:28;;;;;;;10.32;1.83;;;3.80;99.90;;;;;;5092932;28;20091;-68
2022/04/08 01:04:53;;;;;;;7.00;1.40;;;3.70;99.90;;;;;;5074419;28;20044;-69
2022/04/08 01:07:19;;;;;;;5.40;0.90;;;3.70;99.90;;;;;;5074331;28;20556;-68
2022/04/08 01:09:45;;;;;;;10.00;1.98;;;3.70;99.90;;;;;;5074252;28;20086;-68
2022/04/08 01:12:11;;;;;;;9.77;1.60;;;3.70;99.90;;;;;;5091296;28;20044;-69
2022/04/08 01:14:39;;;;;;;16.20;2.03;;;3.80;99.90;;;;;;5074307;28;20048;-68
2022/04/08 01:17:04;;;;;;;9.57;1.73;;;3.70;99.90;;;;;;5073924;28;20067;-68
2022/04/08 01:19:30;;;;;;;10.95;1.40;;;3.80;99.90;;;;;;5091912;28;20032;-69
2022/04/08 01:21:55;;;;;;;7.95;1.30;;;3.80;99.90;;;;;;5074004;28;20040;-69
2022/04/08 01:24:23;;;;;;;5.53;1.83;;;3.70;99.90;;;;;;5074241;28;20096;-68
2022/04/08 01:26:51;;;;;;;4.90;0.93;;;3.80;99.90;;;;;;5091809;28;20051;-68
2022/04/08 01:29:16;;;;;;;8.90;1.30;;;3.80;99.90;;;;;;5092112;28;20051;-68
2022/04/08 01:31:44;;;;;;;7.80;1.23;;;3.70;99.90;;;;;;5074140;28;20052;-69
2022/04/08 01:34:10;;;;;;;10.02;1.38;;;3.70;99.90;;;;;;5091248;28;20501;-68
2022/04/08 01:36:37;;;;;;;11.93;1.65;;;3.70;99.90;;;;;;5074339;28;20040;-68
2022/04/08 01:39:03;;;;;;;7.88;1.33;;;3.70;99.90;;;;;;5092104;28;20079;-69
2022/04/08 01:41:31;;;;;;;10.20;2.00;;;3.70;99.90;;;;;;5073178;28;20521;-68
2022/04/08 01:43:57;;;;;;;10.45;2.13;;;3.70;99.90;;;;;;5091059;28;20040;-69
2022/04/08 01:46:23;;;;;;;6.43;1.83;;;3.70;99.90;;;;;;5073243;28;20090;-68
2022/04/08 01:48:53;;;;;;;9.43;1.35;;;3.70;99.90;;;;;;5073205;28;20182;-69
2022/04/08 01:51:19;;;;;;;5.95;1.10;;;3.60;99.90;;;;;;5091318;28;20097;-68
2022/04/08 01:53:44;;;;;;;6.47;1.63;;;3.70;99.90;;;;;;5090956;28;20036;-68
2022/04/08 01:56:10;;;;;;;6.55;1.48;;;3.60;99.90;;;;;;5091810;28;20047;-69
2022/04/08 01:58:36;;;;;;;9.30;1.83;;;3.60;99.90;;;;;;5073677;28;20051;-68
2022/04/08 02:01:01;;;;;;;8.73;1.75;;;3.60;99.90;;;;;;5072422;28;20074;-69
2022/04/08 02:03:28;;;;;;;8.80;2.05;;;3.60;99.90;;;;;;5074011;28;20126;-68
2022/04/08 02:05:53;;;;;;;11.48;3.22;;;3.90;99.90;;;;;;5091596;28;20044;-68
2022/04/08 02:08:19;;;;;;;17.63;2.38;;;3.70;99.90;;;;;;5091012;28;20042;-69
2022/04/08 02:10:44;;;;;;;18.27;2.50;;;3.70;99.90;;;;;;5073662;28;20052;-68
2022/04/08 02:13:10;;;;;;;11.95;2.35;;;3.70;99.90;;;;;;5091403;28;20044;-69
2022/04/08 02:15:36;;;;;;;9.30;1.70;;;3.80;99.90;;;;;;5072858;28;20036;-68
2022/04/08 02:18:02;;;;;;;10.18;2.33;;;3.90;99.90;;;;;;5073333;28;20079;-69
2022/04/08 02:20:30;;;;;;;9.82;2.38;;;3.90;99.90;;;;;;5091598;28;20084;-68
2022/04/08 02:22:57;;;;;;;12.07;2.78;;;3.90;99.90;;;;;;5091816;28;20097;-69
2022/04/08 02:25:22;;;;;;;12.80;1.65;;;3.90;99.90;;;;;;5077963;28;20437;-68
2022/04/08 02:27:48;;;;;;;14.45;2.55;;;3.90;99.90;;;;;;5095876;28;20044;-68
2022/04/08 02:30:13;;;;;;;12.93;2.47;;;3.80;99.90;;;;;;5094812;28;20055;-68
2022/04/08 02:32:39;;;;;;;14.05;2.70;;;3.80;99.90;;;;;;5077572;28;20044;-68
2022/04/08 02:35:05;;;;;;;6.47;1.85;;;3.70;99.90;;;;;;5095441;28;20044;-68
2022/04/08 02:37:31;;;;;;;11.18;2.15;;;3.70;99.90;;;;;;5095103;28;20390;-68
2022/04/08 02:39:57;;;;;;;8.70;1.80;;;3.70;99.90;;;;;;5095460;28;20036;-68
2022/04/08 02:42:23;;;;;;;9.15;1.38;;;3.60;99.90;;;;;;5095595;28;20058;-68
2022/04/08 02:44:48;;;;;;;7.45;1.70;;;3.60;99.90;;;;;;5094698;28;20032;-68
2022/04/08 02:47:14;;;;;;;6.50;1.45;;;3.60;99.90;;;;;;5095259;28;20097;-68
2022/04/08 02:49:39;;;;;;;5.95;1.10;;;3.60;99.90;;;;;;5077115;28;20130;-68
2022/04/08 02:52:06;;;;;;;12.93;2.83;;;3.50;99.90;;;;;;5075954;28;20056;-68
2022/04/08 02:54:31;;;;;;;7.72;1.20;;;3.50;99.90;;;;;;5095600;28;20044;-68
2022/04/08 02:56:57;;;;;;;11.95;1.77;;;3.50;99.90;;;;;;5094339;28;20521;-69
2022/04/08 02:59:22;;;;;;;6.78;1.75;;;3.60;99.90;;;;;;5095189;28;20044;-68
2022/04/08 03:01:48;;;;;;;8.38;1.20;;;3.60;99.90;;;;;;5077177;28;20051;-69
2022/04/08 03:04:14;;;;;;;9.98;2.20;;;3.60;99.90;;;;;;5094047;28;20044;-68
2022/04/08 03:06:40;;;;;;;9.48;1.63;;;3.50;99.90;;;;;;5076669;28;20044;-68
2022/04/08 03:09:05;;;;;;;4.32;1.33;;;3.50;99.90;;;;;;5076820;28;20047;-69
2022/04/08 03:11:32;;;;;;;5.70;1.75;;;3.50;99.90;;;;;;5094302;28;20044;-68
2022/04/08 03:14:02;;;;;;;6.30;1.35;;;3.40;99.90;;;;;;5094780;28;20052;-69
2022/04/08 03:16:28;;;;;;;8.40;1.30;;;3.40;99.90;;;;;;5076910;28;20165;-68
2022/04/08 03:18:54;;;;;;;11.10;2.13;;;3.40;99.90;;;;;;5076257;28;20398;-69
2022/04/08 03:21:20;;;;;;;7.45;1.70;;;2.20;99.90;;;;;;5094923;28;20052;-68
2022/04/08 03:23:45;;;;;;;4.13;1.38;;;3.40;99.90;;;;;;5076615;28;20036;-69
2022/04/08 03:26:11;;;;;;;4.97;1.10;;;3.40;99.90;;;;;;5093931;28;20040;-68
2022/04/08 03:28:37;;;;;;;8.85;1.35;;;3.40;99.90;;;;;;5094776;28;20046;-68
2022/04/08 03:31:02;;;;;;;6.13;1.45;;;3.30;99.90;;;;;;5076015;28;20052;-69
2022/04/08 03:33:29;;;;;;;3.63;1.02;;;3.30;99.90;;;;;;5093770;28;20050;-68
2022/04/08 03:35:54;;;;;;;6.60;1.55;;;3.30;99.90;;;;;;5094603;28;20044;-68
2022/04/08 03:38:20;;;;;;;7.35;1.48;;;3.30;99.90;;;;;;5094562;28;20046;-69
2022/04/08 03:40:47;;;;;;;8.88;1.85;;;3.20;99.90;;;;;;5093949;28;20063;-69
2022/04/08 03:43:12;;;;;;;7.30;1.00;;;3.20;99.90;;;;;;5094136;28;20044;-68
2022/04/08 03:45:38;;;;;;;3.22;1.10;;;3.20;99.90;;;;;;5094229;28;20475;-68
2022/04/08 03:48:04;;;;;;;5.90;1.70;;;3.20;99.90;;;;;;5075387;28;20043;-69
2022/04/08 03:50:30;;;;;;;6.20;1.20;;;3.30;99.90;;;;;;5094109;28;20076;-68
2022/04/08 03:52:55;;;;;;;4.22;1.08;;;3.50;99.90;;;;;;5094127;28;20080;-69
2022/04/08 03:55:22;;;;;;;6.65;0.85;;;3.60;99.90;;;;;;5075599;28;20529;-68
2022/04/08 03:57:48;;;;;;;1.98;1.00;;;3.50;99.90;;;;;;5094266;28;20040;-69
2022/04/08 04:00:13;;;;;;;5.32;1.23;;;3.40;99.90;;;;;;5075193;28;20036;-69
2022/04/08 04:02:39;;;;;;;5.97;1.23;;;3.20;99.90;;;;;;5094200;28;20036;-68
2022/04/08 04:05:05;;;;;;;3.97;0.85;;;3.10;99.90;;;;;;5093953;28;20040;-69
2022/04/08 04:07:34;;;;;;;5.43;1.58;;;3.00;99.90;;;;;;5075243;28;20460;-68
2022/04/08 04:10:00;;;;;;;9.00;2.20;;;2.90;99.90;;;;;;5075156;28;20094;-69
2022/04/08 04:12:29;;;;;;;6.72;1.52;;;3.00;99.90;;;;;;5093882;28;20050;-68
2022/04/08 04:14:56;;;;;;;8.88;1.10;;;2.90;99.90;;;;;;5074694;28;20075;-68
2022/04/08 04:17:23;;;;;;;2.95;1.75;;;2.90;99.90;;;;;;5075629;28;20509;-68
2022/04/08 04:19:49;;;;;;;2.88;1.27;;;2.90;99.90;;;;;;5093846;28;20078;-68
2022/04/08 04:22:14;;;;;;;6.00;1.67;;;2.80;99.90;;;;;;5074720;28;20060;-68
2022/04/08 04:24:43;;;;;;;5.03;1.50;;;2.80;99.90;;;;;;5125226;27;20039;-68
2022/04/08 04:27:09;;;;;;;2.55;0.85;;;2.70;99.90;;;;;;5114890;27;20071;-68
2022/04/08 04:29:35;;;;;;;8.25;0.90;;;2.70;99.90;;;;;;5109289;28;20088;-68
2022/04/08 04:32:03;;;;;;;2.65;1.25;;;2.70;99.90;;;;;;5113497;28;20475;-68
2022/04/08 04:34:29;;;;;;;0.90;0.90;;;2.60;99.90;;;;;;5113056;28;20398;-68
2022/04/08 04:36:54;;;;;;;5.75;2.05;;;2.60;99.90;;;;;;5112750;28;20050;-68
2022/04/08 04:39:20;;;;;;;3.67;0.93;;;2.60;99.90;;;;;;5113821;28;20046;-68
2022/04/08 04:41:45;;;;;;;39.35;4.45;;;2.60;99.90;;;;;;5111805;27;20477;-68
2022/04/08 04:44:11;;;;;;;6.85;1.00;;;2.60;99.90;;;;;;5114538;27;20130;-68
2022/04/08 04:46:36;;;;;;;3.90;1.30;;;2.60;99.90;;;;;;5115376;27;20442;-68
2022/04/08 04:49:03;;;;;;;2.28;1.00;;;2.70;99.90;;;;;;5115290;27;20158;-68
2022/04/08 04:51:30;;;;;;;5.32;2.35;;;2.70;99.90;;;;;;5105082;28;20047;-68
2022/04/08 04:53:57;;;;;;;2.38;1.10;;;2.80;99.90;;;;;;5094849;28;20084;-69
2022/04/08 04:56:23;;;;;;;5.97;1.67;;;2.80;99.90;;;;;;5094220;28;20047;-68
2022/04/08 04:58:48;;;;;;;3.33;1.10;;;2.70;99.90;;;;;;5113258;28;20043;-68
2022/04/08 05:01:14;;;;;;;2.80;1.33;;;2.80;99.90;;;;;;5094984;28;20601;-68
2022/04/08 05:03:39;;;;;;;2.60;1.13;;;2.80;99.90;;;;;;5112548;28;20481;-68
2022/04/08 05:06:05;;;;;;;8.05;0.93;;;2.80;99.90;;;;;;5094514;28;20036;-68
2022/04/08 05:08:30;;;;;;;6.15;1.60;;;2.80;99.90;;;;;;5095114;28;20044;-68
2022/04/08 05:10:58;;;;;;;3.25;1.10;;;2.80;99.90;;;;;;5126663;27;20088;-68
2022/04/08 05:13:23;;;;;;;1.98;1.45;;;2.80;99.90;;;;;;5133440;27;20481;-68
2022/04/08 05:15:49;;;;;;;0.75;0.70;;;2.70;99.90;;;;;;5133732;27;20042;-68
2022/04/08 05:18:15;;;;;;;4.82;0.90;;;2.70;99.90;;;;;;5132485;27;20094;-68
2022/04/08 05:20:41;;;;;;;1.70;0.85;;;2.70;99.90;;;;;;5114118;27;20039;-68
2022/04/08 05:23:06;;;;;;;5.82;1.48;;;2.70;99.90;;;;;;5089956;28;20071;-68
2022/04/08 05:25:32;;;;;;;2.17;1.00;;;2.70;99.90;;;;;;5073390;28;20094;-68
2022/04/08 05:27:57;;;;;;;2.10;1.33;;;2.60;99.90;;;;;;5093774;27;20054;-68
2022/04/08 05:30:23;;;;;;;3.42;0.88;;;2.60;99.90;;;;;;5115038;27;20085;-68
2022/04/08 05:32:52;;;;;;;5.43;1.58;;;2.50;99.90;;;;;;5113967;27;20047;-68
2022/04/08 05:35:21;;;;;;;3.45;1.13;;;2.60;99.90;;;;;;5122046;27;20055;-68
2022/04/08 05:37:48;;;;;;;4.65;1.20;;;2.60;99.90;;;;;;5121302;27;20483;-68
2022/04/08 05:40:16;;;;;;;5.05;1.83;;;2.60;99.90;;;;;;5119023;27;20517;-68
2022/04/08 05:42:44;;;;;;;3.40;1.45;;;2.70;99.90;;;;;;5105096;27;20413;-68
2022/04/08 05:45:16;;;;;;;2.58;1.00;;;2.70;99.90;;;;;;5114545;27;20075;-68
2022/04/08 05:47:42;;;;;;;4.03;1.52;;;2.80;99.90;;;;;;5093051;28;20044;-68
2022/04/08 05:50:08;;;;;;;2.90;0.90;;;2.90;99.90;;;;;;5112627;27;20101;-68
2022/04/08 05:52:37;;;;;;;2.83;1.35;;;2.80;99.90;;;;;;5114105;27;20062;-68
2022/04/08 05:55:03;;;;;;;1.20;1.08;;;2.80;99.90;;;;;;5132453;27;20122;-69
2022/04/08 05:57:34;;;;;;;5.57;1.42;;;2.80;99.90;;;;;;5113467;28;20445;-68
2022/04/08 06:00:00;;;;;;;3.45;1.20;;;3.00;99.90;;;;;;5131839;27;20039;-68
2022/04/08 06:02:26;;;;;;;2.13;1.25;;;3.00;99.90;;;;;;5107464;28;20121;-68
2022/04/08 06:04:51;;;;;;;5.90;1.58;;;3.00;99.90;;;;;;5112058;28;20070;-68
2022/04/08 06:07:18;;;;;;;2.25;1.10;;;3.00;99.90;;;;;;5111149;28;20048;-68
2022/04/08 06:09:43;;;;;;;7.85;1.73;;;3.10;99.90;;;;;;5093910;28;20371;-68
2022/04/08 06:12:09;;;;;;;6.20;1.70;;;3.10;99.90;;;;;;5093377;28;20093;-68
2022/04/08 06:14:34;;;;;;;5.82;1.33;;;3.20;99.90;;;;;;5111150;28;20089;-68
2022/04/08 06:17:00;;;;;;;2.88;1.40;;;3.20;99.90;;;;;;5111629;28;20482;-68
2022/04/08 06:19:26;;;;;;;5.50;1.23;;;3.30;99.90;;;;;;5111920;28;20085;-68
2022/04/08 06:21:52;;;;;;;2.78;1.70;;;3.30;99.90;;;;;;5111085;28;20050;-68
2022/04/08 06:24:17;;;;;;;4.53;1.20;;;3.40;99.90;;;;;;5093050;28;20142;-68
2022/04/08 06:26:43;;;;;;;5.20;1.38;;;3.50;99.90;;;;;;5093453;28;20139;-68
2022/04/08 06:29:09;;;;;;;5.43;1.92;;;3.60;99.90;;;;;;5116278;28;20047;-68
2022/04/08 06:31:35;;;;;;;4.55;1.55;;;3.60;99.90;;;;;;5125189;28;20472;-68
2022/04/08 06:34:01;;;;;;;7.43;1.10;;;3.80;99.90;;;;;;5093761;28;20051;-68
2022/04/08 06:36:27;;;;;;;3.03;1.30;;;3.80;99.90;;;;;;5113206;28;20099;-68
2022/04/08 06:38:53;;;;;;;6.13;1.50;;;3.90;99.90;;;;;;5103594;28;20083;-68
2022/04/08 06:41:19;;;;;;;4.53;1.70;;;4.00;99.90;;;;;;5102637;28;20466;-69
2022/04/08 06:43:45;;;;;;;6.82;1.65;;;4.10;99.90;;;;;;5092742;28;20051;-69
2022/04/08 06:46:11;;;;;;;9.63;2.05;;;4.10;99.90;;;;;;5096878;28;20389;-69
2022/04/08 06:48:36;;;;;;;2.67;1.83;;;4.30;99.90;;;;;;5113654;28;20133;-68
2022/04/08 06:51:04;;;;;;;5.00;2.10;;;4.40;99.90;;;;;;5112721;28;20441;-69
2022/04/08 06:53:33;;;;;;;9.82;2.28;;;4.40;99.90;;;;;;5113499;28;20096;-68
2022/04/08 06:56:03;;;;;;;7.63;1.95;;;4.40;99.90;;;;;;5113056;28;20399;-68
2022/04/08 06:58:30;;;;;;;5.55;1.70;;;4.60;99.90;;;;;;5132190;28;20077;-69
2022/04/08 07:00:55;;;;;;;4.93;1.50;;;4.60;99.90;;;;;;5119419;28;20455;-68
2022/04/08 07:03:25;;;;;;;4.60;1.40;;;4.70;99.90;;;;;;5112171;28;20091;-68
2022/04/08 07:05:50;;;;;;;8.07;1.95;;;4.80;99.90;;;;;;5112670;28;20058;-70
2022/04/08 07:08:16;;;;;;;9.52;2.50;;;4.90;99.90;;;;;;5108423;28;20402;-68
2022/04/08 07:10:41;;;;;;;5.13;2.00;;;5.00;99.90;;;;;;5091636;28;20134;-68
2022/04/08 07:13:08;;;;;;;5.65;1.27;;;5.20;99.90;;;;;;5095987;28;20443;-69
2022/04/08 07:15:34;;;;;;;7.18;2.15;;;5.30;99.90;;;;;;5115187;28;20116;-68
2022/04/08 07:17:59;;;;;;;5.95;1.60;;;5.40;99.90;;;;;;5091114;28;20444;-68
2022/04/08 07:20:25;;;;;;;8.32;1.70;;;5.40;99.90;;;;;;5102715;28;20043;-68
2022/04/08 07:22:51;;;;;;;3.25;1.38;;;5.50;99.90;;;;;;5101517;28;20040;-68
2022/04/08 07:25:18;;;;;;;7.72;1.30;;;5.70;99.90;;;;;;5096802;28;20048;-69
2022/04/08 07:27:50;;;;;;;8.63;2.70;;;5.80;99.90;;;;;;5096413;28;20138;-68
2022/04/08 07:30:18;;;;;;;6.68;1.80;;;5.80;99.90;;;;;;5107033;28;20132;-70
2022/04/08 07:32:46;;;;;;;2.67;1.33;;;5.90;99.90;;;;;;5080364;28;20078;-70
2022/04/08 07:35:11;;;;;;;3.75;1.08;;;5.80;99.90;;;;;;5074493;28;20139;-69
2022/04/08 07:37:38;;;;;;;3.70;0.98;;;5.60;99.90;;;;;;5074922;28;20139;-69
2022/04/08 07:40:08;;;;;;;2.30;0.88;;;5.50;99.90;;;;;;5074398;28;20101;-69
2022/04/08 07:42:34;;;;;;;3.13;0.73;;;5.40;99.90;;;;;;5074278;28;20055;-69
2022/04/08 07:45:00;;;;;;;4.05;1.02;;;5.40;99.90;;;;;;5093541;28;20123;-67
2022/04/08 07:47:28;;;;;;;6.13;1.10;;;5.50;99.90;;;;;;5101699;27;20134;-66
2022/04/08 07:50:02;;;;;;;2.97;1.23;;;5.60;99.90;;;;;;5100457;28;20060;-69
2022/04/08 07:52:28;;;;;;;5.05;1.20;;;5.70;99.90;;;;;;5095778;28;20851;-69
2022/04/08 07:54:54;;;;;;;5.18;1.50;;;5.80;99.90;;;;;;5093335;28;20079;-71
2022/04/08 07:57:20;;;;;;;9.88;1.73;;;5.90;99.90;;;;;;5093346;28;20044;-73
2022/04/08 07:59:46;;;;;;;6.63;1.92;;;6.00;99.90;;;;;;5086466;27;20088;-73
2022/04/08 08:02:14;;;;;;;4.03;1.10;;;6.20;99.90;;;;;;5104517;28;20047;-74
2022/04/08 08:04:40;;;;;;;4.65;1.15;;;6.30;99.90;;;;;;5116398;27;20043;-72
2022/04/08 08:07:06;;;;;;;6.57;1.33;;;6.40;99.90;;;;;;5105551;27;20549;-72
2022/04/08 08:09:33;;;;;;;4.90;1.17;;;6.60;99.90;;;;;;5119068;27;20107;-73
2022/04/08 08:11:59;;;;;;;9.23;1.85;;;6.70;99.90;;;;;;5118081;27;20064;-73
2022/04/08 08:14:25;;;;;;;6.07;1.60;;;6.90;99.90;;;;;;5114992;27;20084;-71
2022/04/08 08:16:51;;;;;;;7.13;0.98;;;7.00;99.90;;;;;;5097132;28;20051;-72
2022/04/08 08:19:16;;;;;;;8.65;1.35;;;7.10;99.90;;;;;;5085390;28;20105;-73
2022/04/08 08:21:42;;;;;;;12.40;1.58;;;7.00;99.90;;;;;;5110378;28;20043;-73
2022/04/08 08:24:08;;;;;;;3.17;1.05;;;6.90;99.90;;;;;;5112462;28;20070;-72
2022/04/08 08:26:33;;;;;;;9.85;2.42;;;6.90;99.90;;;;;;5094563;28;20099;-73
2022/04/08 08:28:59;;;;;;;4.75;0.98;;;7.00;99.90;;;;;;5109823;28;20104;-73
2022/04/08 08:31:25;;;;;;;3.72;0.65;;;7.10;99.90;;;;;;5087613;28;20515;-73
2022/04/08 08:33:53;;;;;;;6.78;1.08;;;7.30;99.90;;;;;;5113889;28;20048;-73
2022/04/08 08:36:19;;;;;;;4.75;1.20;;;7.50;99.90;;;;;;5089440;28;20038;-73
2022/04/08 08:38:44;;;;;;;4.28;1.10;;;7.60;99.90;;;;;;5082889;28;20052;-73
2022/04/08 08:41:10;;;;;;;4.38;1.23;;;7.70;99.90;;;;;;5093639;28;20406;-72
2022/04/08 08:43:36;;;;;;;9.13;1.10;;;7.70;99.90;;;;;;5110356;28;20040;-72
2022/04/08 08:46:04;;;;;;;5.50;1.33;;;7.80;99.90;;;;;;5075591;28;20048;-73
2022/04/08 08:48:34;;;;;;;4.55;1.27;;;7.90;99.90;;;;;;5074919;28;20064;-72
2022/04/08 08:51:02;;;;;;;7.30;0.95;;;8.00;99.90;;;;;;5090620;27;20077;-74
2022/04/08 08:53:33;;;;;;;7.50;1.35;;;7.90;99.90;;;;;;5121903;27;20051;-73
2022/04/08 08:55:59;;;;;;;4.35;1.08;;;7.50;99.90;;;;;;5082704;28;20051;-73
2022/04/08 08:58:25;;;;;;;4.97;1.00;;;7.20;99.90;;;;;;5107662;28;20088;-73
2022/04/08 09:00:51;;;;;;;6.68;1.55;;;6.90;99.90;;;;;;5095008;28;20040;-72
2022/04/08 09:03:17;;;;;;;3.47;1.10;;;6.60;99.90;;;;;;5074039;28;20044;-72
2022/04/08 09:05:53;;;;;;;3.63;1.20;;;6.40;99.90;;;;;;5092899;28;20520;-72
2022/04/08 09:08:19;;;;;;;6.78;1.65;;;6.60;99.90;;;;;;5091638;28;20040;-72
2022/04/08 09:10:48;;;;;;;4.55;1.40;;;6.90;99.90;;;;;;5091858;28;20051;-72
2022/04/08 09:13:21;;;;;;;3.30;1.27;;;7.20;99.90;;;;;;5082522;28;20058;-71
2022/04/08 09:15:55;;;;;;;4.97;1.05;;;7.20;99.90;;;;;;5081486;28;20048;-71
2022/04/08 09:18:21;;;;;;;3.67;1.55;;;7.10;99.90;;;;;;5073130;28;20047;-71
2022/04/08 09:20:49;;;;;;;2.53;1.15;;;7.00;99.90;;;;;;5120776;27;20659;-71
2022/04/08 09:23:17;;;;;;;4.93;1.02;;;6.80;99.90;;;;;;5120681;27;20417;-71
2022/04/08 09:25:43;;;;;;;1.90;0.60;;;6.60;99.90;;;;;;5091229;28;20390;-71
2022/04/08 09:28:17;;;;;;;4.25;0.70;;;6.50;99.90;;;;;;5120123;27;20122;-71
2022/04/08 09:30:52;;;;;;;3.88;0.80;;;6.60;99.90;;;;;;5117728;27;20047;-71
2022/04/08 09:33:21;;;;;;;4.43;1.10;;;6.80;99.90;;;;;;5100956;27;20385;-71
2022/04/08 09:35:47;;;;;;;3.65;0.90;;;7.00;99.90;;;;;;5102719;28;20040;-71
2022/04/08 09:38:21;;;;;;;4.55;0.88;;;7.30;99.90;;;;;;5104351;27;20140;-72
2022/04/08 09:40:50;;;;;;;3.40;1.20;;;7.40;99.90;;;;;;5084782;28;20075;-71
2022/04/08 09:43:17;;;;;;;5.07;1.40;;;7.60;99.90;;;;;;5084319;28;20058;-72
2022/04/08 09:45:44;;;;;;;8.20;1.35;;;7.90;99.90;;;;;;5109323;28;20082;-72
2022/04/08 09:48:10;;;;;;;1.75;1.08;;;8.20;99.90;;;;;;5093427;28;20048;-72
2022/04/08 09:50:37;;;;;;;6.75;1.08;;;8.20;99.90;;;;;;5091665;28;20585;-72
2022/04/08 09:53:04;;;;;;;7.65;1.23;;;8.10;99.90;;;;;;5090581;28;20063;-72
2022/04/08 09:55:30;;;;;;;2.88;1.15;;;8.10;99.90;;;;;;5082168;28;20123;-72
2022/04/08 09:58:15;;;;;;;1.40;0.30;;;7.90;99.90;;;;;;5111959;28;20039;-72
2022/04/08 10:00:44;;;;;;;2.22;0.63;;;7.60;99.90;;;;;;5110408;28;20031;-71
2022/04/08 10:03:11;;;;;;;1.27;0.63;;;7.30;99.90;;;;;;5078451;28;20059;-71
2022/04/08 10:05:37;;;;;;;6.75;1.35;;;7.00;99.90;;;;;;5091455;28;20089;-71
2022/04/08 10:08:05;;;;;;;2.92;0.60;;;6.80;99.90;;;;;;5072534;28;20406;-71
2022/04/08 10:10:42;;;;;;;3.75;0.95;;;6.80;99.90;;;;;;5091231;28;20056;-70
2022/04/08 10:13:40;;;;;;;9.63;1.70;;;7.10;99.90;;;;;;5072644;28;20520;-70
2022/04/08 10:16:24;;;;;;;9.55;1.38;;;7.30;99.90;;;;;;5090921;28;20082;-70
2022/04/08 10:18:52;;;;;;;2.83;0.75;;;7.30;99.90;;;;;;5090027;28;20068;-71
2022/04/08 10:21:18;;;;;;;3.65;1.02;;;7.50;99.90;;;;;;5072156;28;20101;-70
2022/04/08 10:23:53;;;;;;;4.90;1.15;;;7.80;99.90;;;;;;5072709;28;20050;-70
2022/04/08 10:26:24;;;;;;;2.55;0.80;;;8.20;99.90;;;;;;5082609;28;20051;-71
2022/04/08 10:28:54;;;;;;;2.95;0.95;;;8.50;99.90;;;;;;5086137;28;20097;-70
2022/04/08 10:31:22;;;;;;;5.47;1.02;;;8.30;99.90;;;;;;5089935;28;20071;-71
2022/04/08 10:33:53;;;;;;;2.88;0.90;;;7.60;99.90;;;;;;5074945;28;20138;-70
2022/04/08 10:36:50;;;;;;;3.58;1.02;;;7.10;99.90;;;;;;5082987;28;20061;-70
2022/04/08 10:39:23;;;;;;;4.35;1.27;;;6.70;99.90;;;;;;5092272;28;20055;-72
2022/04/08 10:42:00;;;;;;;2.13;0.63;;;6.50;99.90;;;;;;5092049;28;20074;-71
2022/04/08 10:44:39;;;;;;;4.30;1.05;;;6.40;99.90;;;;;;5094335;28;20130;-71
2022/04/08 10:47:14;;;;;;;1.92;0.82;;;6.60;99.90;;;;;;5096896;28;20075;-71
2022/04/08 10:49:56;;;;;;;4.88;1.33;;;6.80;99.90;;;;;;5114674;28;20089;-73
2022/04/08 10:52:26;;;;;;;3.42;1.38;;;7.10;99.90;;;;;;5097354;28;20052;-72
2022/04/08 10:55:04;;;;;;;7.88;1.85;;;7.40;99.90;;;;;;5094999;28;20039;-72
2022/04/08 10:57:37;;;;;;;9.60;1.95;;;7.70;99.90;;;;;;5113641;28;20047;-71
2022/04/08 11:00:08;;;;;;;3.92;1.60;;;8.00;99.90;;;;;;5075165;28;20056;-72
2022/04/08 11:02:35;;;;;;;9.02;1.75;;;8.30;99.90;;;;;;5075941;28;20137;-72
2022/04/08 11:05:05;;;;;;;5.50;1.45;;;8.40;99.90;;;;;;5076840;28;20073;-74
2022/04/08 11:07:31;;;;;;;3.03;0.80;;;8.50;99.90;;;;;;5076291;28;20497;-72
2022/04/08 11:09:57;;;;;;;3.33;0.77;;;8.70;99.90;;;;;;5075844;28;20044;-72
2022/04/08 11:12:23;;;;;;;5.25;0.93;;;8.70;99.90;;;;;;5076958;28;20528;-71
2022/04/08 11:14:58;;;;;;;2.00;0.80;;;8.60;99.90;;;;;;5106951;28;20088;-71
2022/04/08 11:17:34;;;;;;;5.60;1.33;;;8.40;99.90;;;;;;5093770;28;20513;-71
2022/04/08 11:20:01;;;;;;;3.88;1.17;;;8.40;99.90;;;;;;5078563;28;20039;-72
2022/04/08 11:22:44;;;;;;;9.00;1.48;;;8.60;99.90;;;;;;5079911;28;20044;-72
2022/04/08 11:25:18;;;;;;;1.58;0.85;;;9.00;99.90;;;;;;5091148;28;20497;-72
2022/04/08 11:27:43;;;;;;;2.00;0.68;;;9.20;99.90;;;;;;5096658;28;20127;-72
2022/04/08 11:30:10;;;;;;;5.90;0.95;;;9.20;99.90;;;;;;5108057;28;20123;-73
2022/04/08 11:32:39;;;;;;;6.93;1.08;;;9.20;99.90;;;;;;5093889;28;20090;-73
2022/04/08 11:35:14;;;;;;;3.13;1.00;;;9.10;99.90;;;;;;5076437;28;20039;-73
2022/04/08 11:37:40;;;;;;;3.55;0.90;;;9.10;99.90;;;;;;5075579;28;20047;-72
2022/04/08 11:40:06;;;;;;;6.18;0.90;;;9.10;99.90;;;;;;5075946;28;20056;-71
2022/04/08 11:42:32;;;;;;;3.58;0.90;;;9.10;99.90;;;;;;5086223;28;20536;-72
2022/04/08 11:44:58;;;;;;;3.58;0.93;;;9.00;99.90;;;;;;5113634;28;20079;-72
2022/04/08 11:47:31;;;;;;;4.03;0.90;;;9.00;99.90;;;;;;5105873;27;20047;-72
2022/04/08 11:50:06;;;;;;;9.13;0.95;;;9.10;99.90;;;;;;5095707;28;20087;-72
2022/04/08 11:52:33;;;;;;;8.95;1.23;;;9.00;99.90;;;;;;5095285;28;20138;-72
2022/04/08 11:55:06;;;;;;;3.28;0.93;;;8.90;99.90;;;;;;5095787;28;20468;-72
2022/04/08 11:57:33;;;;;;;4.32;0.85;;;8.90;99.90;;;;;;5114039;28;20062;-71
2022/04/08 12:00:02;;;;;;;4.30;1.27;;;9.00;99.90;;;;;;5113442;28;20533;-71
2022/04/08 12:02:29;;;;;;;3.80;1.15;;;9.20;99.90;;;;;;5114601;28;20052;-71
2022/04/08 12:04:55;;;;;;;3.13;0.50;;;9.30;99.90;;;;;;5114287;28;20079;-72
2022/04/08 12:07:23;;;;;;;5.10;1.08;;;9.40;99.90;;;;;;5113577;28;20067;-71
2022/04/08 12:09:49;;;;;;;4.75;1.20;;;9.60;99.90;;;;;;5086457;28;20044;-71
2022/04/08 12:12:27;;;;;;;8.48;1.63;;;9.70;99.90;;;;;;5084429;28;20056;-71
2022/04/08 12:14:54;;;;;;;7.15;1.10;;;9.80;99.90;;;;;;5106774;28;20401;-72
2022/04/08 12:17:20;;;;;;;7.95;1.15;;;10.00;99.90;;;;;;5094842;28;20047;-73
2022/04/08 12:19:51;;;;;;;3.47;1.05;;;9.80;99.90;;;;;;5078548;28;20136;-71
2022/04/08 12:22:17;;;;;;;4.20;1.35;;;9.40;99.90;;;;;;5083528;28;20059;-72
2022/04/08 12:24:44;;;;;;;4.95;1.20;;;9.00;99.90;;;;;;5101745;28;20048;-71
2022/04/08 12:27:11;;;;;;;2.42;0.95;;;8.50;99.90;;;;;;5073814;28;20063;-72
2022/04/08 12:29:39;;;;;;;3.10;0.63;;;8.00;99.90;;;;;;5080445;28;20376;-71
2022/04/08 12:32:15;;;;;;;1.02;0.70;;;7.70;99.90;;;;;;5105543;28;20484;-71
2022/04/08 12:34:44;;;;;;;3.28;1.15;;;7.60;99.90;;;;;;5088246;28;20039;-71
2022/04/08 12:37:10;;;;;;;0.95;0.40;;;7.60;99.90;;;;;;5083732;28;20044;-71
2022/04/08 12:39:35;;;;;;;2.92;0.65;;;7.60;99.90;;;;;;5102090;28;20505;-74
2022/04/08 12:42:02;;;;;;;2.90;0.88;;;7.70;99.90;;;;;;5075077;28;20198;-70
2022/04/08 12:44:28;;;;;;;3.75;1.05;;;7.90;99.90;;;;;;5098374;28;20097;-72
2022/04/08 12:46:55;;;;;;;5.10;1.17;;;8.20;99.90;;;;;;5106107;28;20044;-73
2022/04/08 12:49:21;;;;;;;6.68;1.25;;;8.40;99.90;;;;;;5112031;28;20058;-73
2022/04/08 12:51:46;;;;;;;2.25;0.90;;;8.60;99.90;;;;;;5094690;28;20055;-73
2022/04/08 12:54:12;;;;;;;5.47;1.10;;;8.70;99.90;;;;;;5088754;28;20130;-74
2022/04/08 12:56:41;;;;;;;5.75;1.00;;;8.90;99.90;;;;;;5092315;28;20097;-72